sensor_id;sensor_type;location;lat;lon;timestamp;temperature;humidity
13436;DHT22;6790;49.520;8.504;2023-02-12T00:00:08;4.60;99.90
13436;DHT22;6790;49.520;8.504;2023-02-12T00:02:34;4.70;99.90
13436;DHT22;6790;49.520;8.504;2023-02-12T00:05:00;4.70;99.90
13436;DHT22;6790;49.520;8.504;2023-02-12T00:07:29;4.70;99.90
13436;DHT22;6790;49.520;8.504;2023-02-12T00:09:55;4.70;99.90
13436;DHT22;6790;49.520;8.504;2023-02-12T00:12:21;4.70;99.90
13436;DHT22;6790;49.520;8.504;2023-02-12T00:14:46;4.80;99.90
13436;DHT22;6790;49.520;8.504;2023-02-12T00:17:12;4.80;99.90
13436;DHT22;6790;49.520;8.504;2023-02-12T00:19:38;4.80;99.90
13436;DHT22;6790;49.520;8.504;2023-02-12T00:22:03;4.80;99.90
13436;DHT22;6790;49.520;8.504;2023-02-12T00:24:29;4.80;99.90
13436;DHT22;6790;49.520;8.504;2023-02-12T00:26:55;4.80;99.90
13436;DHT22;6790;49.520;8.504;2023-02-12T00:29:20;4.80;99.90
13436;DHT22;6790;49.520;8.504;2023-02-12T00:31:46;4.80;99.90
13436;DHT22;6790;49.520;8.504;2023-02-12T00:34:12;4.80;99.90
13436;DHT22;6790;49.520;8.504;2023-02-12T00:36:37;4.80;99.90
13436;DHT22;6790;49.520;8.504;2023-02-12T00:39:03;4.80;99.90
13436;DHT22;6790;49.520;8.504;2023-02-12T00:41:29;4.80;99.90
13436;DHT22;6790;49.520;8.504;2023-02-12T00:43:55;4.70;99.90
13436;DHT22;6790;49.520;8.504;2023-02-12T00:46:21;4.80;99.90
13436;DHT22;6790;49.520;8.504;2023-02-12T00:48:47;4.80;99.90
13436;DHT22;6790;49.520;8.504;2023-02-12T00:51:12;4.80;99.90
13436;DHT22;6790;49.520;8.504;2023-02-12T00:53:39;4.70;99.90
13436;DHT22;6790;49.520;8.504;2023-02-12T00:56:05;4.70;99.90
13436;DHT22;6790;49.520;8.504;2023-02-12T00:58:31;4.70;99.90
13436;DHT22;6790;49.520;8.504;2023-02-12T01:00:56;4.70;99.90
13436;DHT22;6790;49.520;8.504;2023-02-12T01:03:23;4.70;99.90
13436;DHT22;6790;49.520;8.504;2023-02-12T01:05:48;4.60;99.90
13436;DHT22;6790;49.520;8.504;2023-02-12T01:08:15;4.60;99.90
13436;DHT22;6790;49.520;8.504;2023-02-12T01:10:42;4.60;99.90
13436;DHT22;6790;49.520;8.504;2023-02-12T01:13:13;4.60;99.90
13436;DHT22;6790;49.520;8.504;2023-02-12T01:15:40;4.60;99.90
13436;DHT22;6790;49.520;8.504;2023-02-12T01:18:06;4.60;99.90
13436;DHT22;6790;49.520;8.504;2023-02-12T01:20:32;4.60;99.90
13436;DHT22;6790;49.520;8.504;2023-02-12T01:22:58;4.70;99.90
13436;DHT22;6790;49.520;8.504;2023-02-12T01:25:26;4.60;99.90
13436;DHT22;6790;49.520;8.504;2023-02-12T01:27:52;4.60;99.90
13436;DHT22;6790;49.520;8.504;2023-02-12T01:30:18;4.60;99.90
13436;DHT22;6790;49.520;8.504;2023-02-12T01:32:47;4.60;99.90
13436;DHT22;6790;49.520;8.504;2023-02-12T01:35:13;4.70;99.90
13436;DHT22;6790;49.520;8.504;2023-02-12T01:37:38;4.70;99.90
13436;DHT22;6790;49.520;8.504;2023-02-12T01:40:07;4.70;99.90
13436;DHT22;6790;49.520;8.504;2023-02-12T01:42:34;4.70;99.90
13436;DHT22;6790;49.520;8.504;2023-02-12T01:45:41;4.70;99.90
13436;DHT22;6790;49.520;8.504;2023-02-12T01:48:00;4.70;99.90
13436;DHT22;6790;49.520;8.504;2023-02-12T01:50:26;4.70;99.90
13436;DHT22;6790;49.520;8.504;2023-02-12T01:52:54;4.70;99.90
13436;DHT22;6790;49.520;8.504;2023-02-12T01:55:21;4.70;99.90
13436;DHT22;6790;49.520;8.504;2023-02-12T01:57:48;4.70;99.90
13436;DHT22;6790;49.520;8.504;2023-02-12T02:00:20;4.70;99.90
13436;DHT22;6790;49.520;8.504;2023-02-12T02:02:51;4.70;99.90
13436;DHT22;6790;49.520;8.504;2023-02-12T02:05:27;4.70;99.90
13436;DHT22;6790;49.520;8.504;2023-02-12T02:07:58;4.70;99.90
13436;DHT22;6790;49.520;8.504;2023-02-12T02:10:24;4.80;99.90
13436;DHT22;6790;49.520;8.504;2023-02-12T02:12:50;4.80;99.90
13436;DHT22;6790;49.520;8.504;2023-02-12T02:15:35;4.80;99.90
13436;DHT22;6790;49.520;8.504;2023-02-12T02:18:06;4.80;99.90
13436;DHT22;6790;49.520;8.504;2023-02-12T02:27:17;4.90;99.90
13436;DHT22;6790;49.520;8.504;2023-02-12T02:30:27;4.90;99.90
13436;DHT22;6790;49.520;8.504;2023-02-12T02:33:42;4.90;99.90
13436;DHT22;6790;49.520;8.504;2023-02-12T02:36:21;4.90;99.90
13436;DHT22;6790;49.520;8.504;2023-02-12T02:42:07;4.90;99.90
13436;DHT22;6790;49.520;8.504;2023-02-12T02:44:41;4.90;99.90
13436;DHT22;6790;49.520;8.504;2023-02-12T02:47:14;5.00;99.90
13436;DHT22;6790;49.520;8.504;2023-02-12T02:49:45;5.00;99.90
13436;DHT22;6790;49.520;8.504;2023-02-12T02:52:21;5.00;99.90
13436;DHT22;6790;49.520;8.504;2023-02-12T02:54:57;5.00;99.90
13436;DHT22;6790;49.520;8.504;2023-02-12T02:57:50;5.00;99.90
13436;DHT22;6790;49.520;8.504;2023-02-12T03:00:25;5.00;99.90
13436;DHT22;6790;49.520;8.504;2023-02-12T03:03:01;5.00;99.90
13436;DHT22;6790;49.520;8.504;2023-02-12T03:05:42;4.90;99.90
13436;DHT22;6790;49.520;8.504;2023-02-12T03:08:19;4.90;99.90
13436;DHT22;6790;49.520;8.504;2023-02-12T03:10:52;4.90;99.90
13436;DHT22;6790;49.520;8.504;2023-02-12T03:16:13;4.90;99.90
13436;DHT22;6790;49.520;8.504;2023-02-12T03:18:49;4.90;99.90
13436;DHT22;6790;49.520;8.504;2023-02-12T03:21:24;4.90;99.90
13436;DHT22;6790;49.520;8.504;2023-02-12T03:24:10;4.90;99.90
13436;DHT22;6790;49.520;8.504;2023-02-12T03:26:57;4.80;99.90
13436;DHT22;6790;49.520;8.504;2023-02-12T03:29:26;4.80;99.90
13436;DHT22;6790;49.520;8.504;2023-02-12T03:32:32;4.80;99.90
13436;DHT22;6790;49.520;8.504;2023-02-12T03:35:24;4.70;99.90
13436;DHT22;6790;49.520;8.504;2023-02-12T03:38:01;4.80;99.90
13436;DHT22;6790;49.520;8.504;2023-02-12T03:40:34;4.70;99.90
13436;DHT22;6790;49.520;8.504;2023-02-12T03:43:19;4.70;99.90
13436;DHT22;6790;49.520;8.504;2023-02-12T03:46:02;4.70;99.90
13436;DHT22;6790;49.520;8.504;2023-02-12T03:48:40;4.60;99.90
13436;DHT22;6790;49.520;8.504;2023-02-12T03:51:22;4.60;99.90
13436;DHT22;6790;49.520;8.504;2023-02-12T03:53:56;4.50;99.90
13436;DHT22;6790;49.520;8.504;2023-02-12T03:56:26;4.50;99.90
13436;DHT22;6790;49.520;8.504;2023-02-12T03:58:56;4.50;99.90
13436;DHT22;6790;49.520;8.504;2023-02-12T04:01:22;4.50;99.90
13436;DHT22;6790;49.520;8.504;2023-02-12T04:03:48;4.50;99.90
13436;DHT22;6790;49.520;8.504;2023-02-12T04:06:21;4.50;99.90
13436;DHT22;6790;49.520;8.504;2023-02-12T04:08:48;4.40;99.90
13436;DHT22;6790;49.520;8.504;2023-02-12T04:17:36;4.50;99.90
13436;DHT22;6790;49.520;8.504;2023-02-12T04:25:40;4.40;99.90
13436;DHT22;6790;49.520;8.504;2023-02-12T04:28:21;4.40;99.90
13436;DHT22;6790;49.520;8.504;2023-02-12T04:31:03;4.40;99.90
13436;DHT22;6790;49.520;8.504;2023-02-12T04:33:41;4.50;99.90
13436;DHT22;6790;49.520;8.504;2023-02-12T04:36:21;4.50;99.90
13436;DHT22;6790;49.520;8.504;2023-02-12T04:39:06;4.50;99.90
13436;DHT22;6790;49.520;8.504;2023-02-12T04:41:37;4.50;99.90
13436;DHT22;6790;49.520;8.504;2023-02-12T04:44:15;4.50;99.90
13436;DHT22;6790;49.520;8.504;2023-02-12T04:46:43;4.50;99.90
13436;DHT22;6790;49.520;8.504;2023-02-12T04:49:13;4.40;99.90
13436;DHT22;6790;49.520;8.504;2023-02-12T04:51:41;4.50;99.90
13436;DHT22;6790;49.520;8.504;2023-02-12T04:54:06;4.50;99.90
13436;DHT22;6790;49.520;8.504;2023-02-12T04:56:32;4.50;99.90
13436;DHT22;6790;49.520;8.504;2023-02-12T04:58:58;4.50;99.90
13436;DHT22;6790;49.520;8.504;2023-02-12T05:01:24;4.50;99.90
13436;DHT22;6790;49.520;8.504;2023-02-12T05:03:50;4.50;99.90
13436;DHT22;6790;49.520;8.504;2023-02-12T05:06:17;4.50;99.90
13436;DHT22;6790;49.520;8.504;2023-02-12T05:08:43;4.50;99.90
13436;DHT22;6790;49.520;8.504;2023-02-12T05:11:09;4.50;99.90
13436;DHT22;6790;49.520;8.504;2023-02-12T05:13:35;4.50;99.90
13436;DHT22;6790;49.520;8.504;2023-02-12T05:16:06;4.50;99.90
13436;DHT22;6790;49.520;8.504;2023-02-12T05:18:33;4.50;99.90
13436;DHT22;6790;49.520;8.504;2023-02-12T05:21:02;4.50;99.90
13436;DHT22;6790;49.520;8.504;2023-02-12T05:23:30;4.50;99.90
13436;DHT22;6790;49.520;8.504;2023-02-12T05:25:59;4.50;99.90
13436;DHT22;6790;49.520;8.504;2023-02-12T05:32:07;4.60;99.90
13436;DHT22;6790;49.520;8.504;2023-02-12T05:34:34;4.60;99.90
13436;DHT22;6790;49.520;8.504;2023-02-12T05:37:01;4.50;99.90
13436;DHT22;6790;49.520;8.504;2023-02-12T05:39:26;4.50;99.90
13436;DHT22;6790;49.520;8.504;2023-02-12T05:41:52;4.50;99.90
13436;DHT22;6790;49.520;8.504;2023-02-12T05:44:18;4.50;99.90
13436;DHT22;6790;49.520;8.504;2023-02-12T05:46:43;4.50;99.90
13436;DHT22;6790;49.520;8.504;2023-02-12T05:49:09;4.50;99.90
13436;DHT22;6790;49.520;8.504;2023-02-12T05:51:36;4.40;99.90
13436;DHT22;6790;49.520;8.504;2023-02-12T05:54:04;4.40;99.90
13436;DHT22;6790;49.520;8.504;2023-02-12T05:56:37;4.40;99.90
13436;DHT22;6790;49.520;8.504;2023-02-12T05:59:11;4.40;99.90
13436;DHT22;6790;49.520;8.504;2023-02-12T06:01:43;4.40;99.90
13436;DHT22;6790;49.520;8.504;2023-02-12T06:04:13;4.30;99.90
13436;DHT22;6790;49.520;8.504;2023-02-12T06:06:50;4.30;99.90
13436;DHT22;6790;49.520;8.504;2023-02-12T06:09:16;4.20;99.90
13436;DHT22;6790;49.520;8.504;2023-02-12T06:11:42;4.20;99.90
13436;DHT22;6790;49.520;8.504;2023-02-12T06:14:12;4.10;99.90
13436;DHT22;6790;49.520;8.504;2023-02-12T06:16:39;4.00;99.90
13436;DHT22;6790;49.520;8.504;2023-02-12T06:19:05;3.90;99.90
13436;DHT22;6790;49.520;8.504;2023-02-12T06:21:32;3.80;99.90
13436;DHT22;6790;49.520;8.504;2023-02-12T06:23:58;3.70;99.90
13436;DHT22;6790;49.520;8.504;2023-02-12T06:26:24;3.60;99.90
13436;DHT22;6790;49.520;8.504;2023-02-12T06:28:51;3.50;99.90
13436;DHT22;6790;49.520;8.504;2023-02-12T06:31:20;3.40;99.90
13436;DHT22;6790;49.520;8.504;2023-02-12T06:33:59;3.30;99.90
13436;DHT22;6790;49.520;8.504;2023-02-12T06:36:26;3.20;99.90
13436;DHT22;6790;49.520;8.504;2023-02-12T06:38:52;3.10;99.90
13436;DHT22;6790;49.520;8.504;2023-02-12T06:41:18;3.00;99.90
13436;DHT22;6790;49.520;8.504;2023-02-12T06:43:44;3.00;99.90
13436;DHT22;6790;49.520;8.504;2023-02-12T06:46:10;2.90;99.90
13436;DHT22;6790;49.520;8.504;2023-02-12T06:48:36;2.80;99.90
13436;DHT22;6790;49.520;8.504;2023-02-12T06:51:14;2.70;99.90
13436;DHT22;6790;49.520;8.504;2023-02-12T06:53:41;2.60;99.90
13436;DHT22;6790;49.520;8.504;2023-02-12T06:56:09;2.60;99.90
13436;DHT22;6790;49.520;8.504;2023-02-12T06:58:38;2.50;99.90
13436;DHT22;6790;49.520;8.504;2023-02-12T07:01:17;2.60;99.90
13436;DHT22;6790;49.520;8.504;2023-02-12T07:03:49;2.60;99.90
13436;DHT22;6790;49.520;8.504;2023-02-12T07:06:16;2.70;99.90
13436;DHT22;6790;49.520;8.504;2023-02-12T07:08:42;2.80;99.90
13436;DHT22;6790;49.520;8.504;2023-02-12T07:11:08;2.90;99.90
13436;DHT22;6790;49.520;8.504;2023-02-12T07:13:34;3.10;99.90
13436;DHT22;6790;49.520;8.504;2023-02-12T07:16:04;3.20;99.90
13436;DHT22;6790;49.520;8.504;2023-02-12T07:18:32;3.30;99.90
13436;DHT22;6790;49.520;8.504;2023-02-12T07:21:01;3.40;99.90
13436;DHT22;6790;49.520;8.504;2023-02-12T07:23:28;3.60;99.90
13436;DHT22;6790;49.520;8.504;2023-02-12T07:26:05;3.70;99.90
13436;DHT22;6790;49.520;8.504;2023-02-12T07:28:32;3.80;99.90
13436;DHT22;6790;49.520;8.504;2023-02-12T07:31:05;3.80;99.90
13436;DHT22;6790;49.520;8.504;2023-02-12T07:33:35;3.90;99.90
13436;DHT22;6790;49.520;8.504;2023-02-12T07:36:02;4.00;99.90
13436;DHT22;6790;49.520;8.504;2023-02-12T07:38:30;4.10;99.90
13436;DHT22;6790;49.520;8.504;2023-02-12T07:41:08;4.10;99.90
13436;DHT22;6790;49.520;8.504;2023-02-12T07:43:40;4.20;99.90
13436;DHT22;6790;49.520;8.504;2023-02-12T07:46:15;4.20;99.90
13436;DHT22;6790;49.520;8.504;2023-02-12T07:48:43;4.30;99.90
13436;DHT22;6790;49.520;8.504;2023-02-12T07:51:11;4.30;99.90
13436;DHT22;6790;49.520;8.504;2023-02-12T07:53:39;4.40;99.90
13436;DHT22;6790;49.520;8.504;2023-02-12T07:56:11;4.50;99.90
13436;DHT22;6790;49.520;8.504;2023-02-12T07:58:40;4.60;99.90
13436;DHT22;6790;49.520;8.504;2023-02-12T08:01:11;4.60;99.90
13436;DHT22;6790;49.520;8.504;2023-02-12T08:03:43;4.60;99.90
13436;DHT22;6790;49.520;8.504;2023-02-12T08:06:13;4.70;99.90
13436;DHT22;6790;49.520;8.504;2023-02-12T08:08:40;4.80;99.90
13436;DHT22;6790;49.520;8.504;2023-02-12T08:11:07;4.80;99.90
13436;DHT22;6790;49.520;8.504;2023-02-12T08:13:37;4.80;99.90
13436;DHT22;6790;49.520;8.504;2023-02-12T08:16:08;4.90;99.90
13436;DHT22;6790;49.520;8.504;2023-02-12T08:18:35;4.90;99.90
13436;DHT22;6790;49.520;8.504;2023-02-12T08:21:09;5.00;99.90
13436;DHT22;6790;49.520;8.504;2023-02-12T08:23:36;5.00;99.90
13436;DHT22;6790;49.520;8.504;2023-02-12T08:28:40;5.10;99.90
13436;DHT22;6790;49.520;8.504;2023-02-12T08:31:16;5.30;99.90
13436;DHT22;6790;49.520;8.504;2023-02-12T08:33:45;5.30;99.90
13436;DHT22;6790;49.520;8.504;2023-02-12T08:36:15;5.40;99.90
13436;DHT22;6790;49.520;8.504;2023-02-12T08:38:43;5.40;99.90
13436;DHT22;6790;49.520;8.504;2023-02-12T08:41:11;5.50;99.90
13436;DHT22;6790;49.520;8.504;2023-02-12T08:43:39;5.60;99.90
13436;DHT22;6790;49.520;8.504;2023-02-12T08:46:14;5.60;99.90
13436;DHT22;6790;49.520;8.504;2023-02-12T08:48:42;5.70;99.90
13436;DHT22;6790;49.520;8.504;2023-02-12T08:51:17;5.70;99.90
13436;DHT22;6790;49.520;8.504;2023-02-12T08:53:45;5.80;99.90
13436;DHT22;6790;49.520;8.504;2023-02-12T08:56:14;5.80;99.90
13436;DHT22;6790;49.520;8.504;2023-02-12T08:58:41;5.90;99.90
13436;DHT22;6790;49.520;8.504;2023-02-12T09:01:12;5.90;99.90
13436;DHT22;6790;49.520;8.504;2023-02-12T09:03:40;6.00;99.90
13436;DHT22;6790;49.520;8.504;2023-02-12T09:06:07;6.00;99.90
13436;DHT22;6790;49.520;8.504;2023-02-12T09:08:33;6.00;99.90
13436;DHT22;6790;49.520;8.504;2023-02-12T09:11:07;6.00;99.90
13436;DHT22;6790;49.520;8.504;2023-02-12T09:13:38;6.20;99.90
13436;DHT22;6790;49.520;8.504;2023-02-12T09:16:06;6.20;99.90
13436;DHT22;6790;49.520;8.504;2023-02-12T09:18:32;6.20;99.90
13436;DHT22;6790;49.520;8.504;2023-02-12T09:21:10;6.30;99.90
13436;DHT22;6790;49.520;8.504;2023-02-12T09:23:38;6.40;99.90
13436;DHT22;6790;49.520;8.504;2023-02-12T09:26:10;6.50;99.90
13436;DHT22;6790;49.520;8.504;2023-02-12T09:28:38;6.60;99.90
13436;DHT22;6790;49.520;8.504;2023-02-12T09:31:13;6.60;99.90
13436;DHT22;6790;49.520;8.504;2023-02-12T09:33:41;6.70;99.90
13436;DHT22;6790;49.520;8.504;2023-02-12T09:36:11;6.80;99.90
13436;DHT22;6790;49.520;8.504;2023-02-12T09:38:40;6.80;99.90
13436;DHT22;6790;49.520;8.504;2023-02-12T09:44:00;6.80;99.90
13436;DHT22;6790;49.520;8.504;2023-02-12T09:47:04;6.90;99.90
13436;DHT22;6790;49.520;8.504;2023-02-12T09:52:27;7.10;99.90
13436;DHT22;6790;49.520;8.504;2023-02-12T09:54:53;7.20;99.90
13436;DHT22;6790;49.520;8.504;2023-02-12T09:57:26;7.30;99.90
13436;DHT22;6790;49.520;8.504;2023-02-12T09:59:58;7.30;99.90
13436;DHT22;6790;49.520;8.504;2023-02-12T10:02:28;7.40;99.90
13436;DHT22;6790;49.520;8.504;2023-02-12T10:04:54;7.40;99.90
13436;DHT22;6790;49.520;8.504;2023-02-12T10:17:44;7.60;99.90
13436;DHT22;6790;49.520;8.504;2023-02-12T10:23:25;7.80;99.90
13436;DHT22;6790;49.520;8.504;2023-02-12T10:26:02;7.90;99.90
13436;DHT22;6790;49.520;8.504;2023-02-12T10:28:40;7.90;99.90
13436;DHT22;6790;49.520;8.504;2023-02-12T10:31:31;7.90;99.90
13436;DHT22;6790;49.520;8.504;2023-02-12T10:33:58;8.10;99.90
13436;DHT22;6790;49.520;8.504;2023-02-12T10:36:32;8.10;99.90
13436;DHT22;6790;49.520;8.504;2023-02-12T10:39:19;8.20;99.90
13436;DHT22;6790;49.520;8.504;2023-02-12T10:42:05;8.20;99.90
13436;DHT22;6790;49.520;8.504;2023-02-12T10:44:36;8.30;99.90
13436;DHT22;6790;49.520;8.504;2023-02-12T10:47:01;8.40;99.90
13436;DHT22;6790;49.520;8.504;2023-02-12T10:49:29;8.50;99.90
13436;DHT22;6790;49.520;8.504;2023-02-12T10:52:14;8.50;99.90
13436;DHT22;6790;49.520;8.504;2023-02-12T10:54:47;8.60;99.90
13436;DHT22;6790;49.520;8.504;2023-02-12T10:57:25;8.60;99.90
13436;DHT22;6790;49.520;8.504;2023-02-12T10:59:55;8.60;99.90
13436;DHT22;6790;49.520;8.504;2023-02-12T11:02:30;8.70;99.90
13436;DHT22;6790;49.520;8.504;2023-02-12T11:04:59;8.80;99.90
13436;DHT22;6790;49.520;8.504;2023-02-12T11:07:48;8.70;99.90
13436;DHT22;6790;49.520;8.504;2023-02-12T11:10:44;8.80;99.90
13436;DHT22;6790;49.520;8.504;2023-02-12T11:13:25;8.90;99.90
13436;DHT22;6790;49.520;8.504;2023-02-12T11:15:53;9.10;99.90
13436;DHT22;6790;49.520;8.504;2023-02-12T11:18:22;9.10;99.90
13436;DHT22;6790;49.520;8.504;2023-02-12T11:20:56;9.20;99.90
13436;DHT22;6790;49.520;8.504;2023-02-12T11:23:24;9.40;99.90
13436;DHT22;6790;49.520;8.504;2023-02-12T11:28:26;9.40;99.90
13436;DHT22;6790;49.520;8.504;2023-02-12T11:31:00;9.50;99.90
13436;DHT22;6790;49.520;8.504;2023-02-12T11:36:10;9.40;99.90
13436;DHT22;6790;49.520;8.504;2023-02-12T11:38:49;9.50;99.90
13436;DHT22;6790;49.520;8.504;2023-02-12T11:41:32;9.60;99.90
13436;DHT22;6790;49.520;8.504;2023-02-12T11:44:08;9.50;99.90
13436;DHT22;6790;49.520;8.504;2023-02-12T11:46:35;9.60;99.90
13436;DHT22;6790;49.520;8.504;2023-02-12T11:49:01;9.80;99.90
13436;DHT22;6790;49.520;8.504;2023-02-12T11:51:29;9.90;99.90
13436;DHT22;6790;49.520;8.504;2023-02-12T11:53:59;9.80;99.90
13436;DHT22;6790;49.520;8.504;2023-02-12T11:56:42;9.90;99.90
13436;DHT22;6790;49.520;8.504;2023-02-12T12:02:21;10.10;99.90
13436;DHT22;6790;49.520;8.504;2023-02-12T12:04:52;10.00;99.90
13436;DHT22;6790;49.520;8.504;2023-02-12T12:07:30;10.00;99.90
13436;DHT22;6790;49.520;8.504;2023-02-12T12:10:02;10.10;99.90
13436;DHT22;6790;49.520;8.504;2023-02-12T12:12:55;10.20;99.90
13436;DHT22;6790;49.520;8.504;2023-02-12T12:15:37;10.30;99.90
13436;DHT22;6790;49.520;8.504;2023-02-12T12:18:46;10.20;99.90
13436;DHT22;6790;49.520;8.504;2023-02-12T12:22:43;10.10;99.90
13436;DHT22;6790;49.520;8.504;2023-02-12T12:27:29;10.30;99.90
13436;DHT22;6790;49.520;8.504;2023-02-12T12:33:19;10.40;99.90
13436;DHT22;6790;49.520;8.504;2023-02-12T12:47:03;10.60;99.90
13436;DHT22;6790;49.520;8.504;2023-02-12T12:52:54;10.40;99.90
13436;DHT22;6790;49.520;8.504;2023-02-12T12:55:59;10.40;99.90
13436;DHT22;6790;49.520;8.504;2023-02-12T13:10:39;10.90;99.90
13436;DHT22;6790;49.520;8.504;2023-02-12T13:13:31;11.00;99.90
13436;DHT22;6790;49.520;8.504;2023-02-12T13:16:39;11.10;99.90
13436;DHT22;6790;49.520;8.504;2023-02-12T13:19:35;11.10;99.90
13436;DHT22;6790;49.520;8.504;2023-02-12T13:22:07;11.10;99.90
13436;DHT22;6790;49.520;8.504;2023-02-12T13:24:50;10.80;99.90
13436;DHT22;6790;49.520;8.504;2023-02-12T13:27:25;10.60;99.90
13436;DHT22;6790;49.520;8.504;2023-02-12T13:30:09;10.80;99.90
13436;DHT22;6790;49.520;8.504;2023-02-12T13:32:47;10.60;99.90
13436;DHT22;6790;49.520;8.504;2023-02-12T13:35:19;10.50;99.90
13436;DHT22;6790;49.520;8.504;2023-02-12T13:37:52;10.60;99.90
13436;DHT22;6790;49.520;8.504;2023-02-12T13:40:22;10.70;99.90
13436;DHT22;6790;49.520;8.504;2023-02-12T13:43:33;10.50;99.90
13436;DHT22;6790;49.520;8.504;2023-02-12T14:01:08;10.40;99.90
13436;DHT22;6790;49.520;8.504;2023-02-12T14:03:36;10.30;99.90
13436;DHT22;6790;49.520;8.504;2023-02-12T14:06:19;10.30;99.90
13436;DHT22;6790;49.520;8.504;2023-02-12T14:09:07;10.40;99.90
13436;DHT22;6790;49.520;8.504;2023-02-12T14:11:47;10.40;99.90
13436;DHT22;6790;49.520;8.504;2023-02-12T14:14:36;10.30;99.90
13436;DHT22;6790;49.520;8.504;2023-02-12T14:25:47;10.50;99.90
13436;DHT22;6790;49.520;8.504;2023-02-12T14:28:23;10.70;99.90
13436;DHT22;6790;49.520;8.504;2023-02-12T14:33:58;10.80;99.90
13436;DHT22;6790;49.520;8.504;2023-02-12T14:36:43;11.00;99.90
13436;DHT22;6790;49.520;8.504;2023-02-12T14:41:45;11.40;99.90
13436;DHT22;6790;49.520;8.504;2023-02-12T14:54:55;10.80;99.90
13436;DHT22;6790;49.520;8.504;2023-02-12T14:57:29;10.90;99.90
13436;DHT22;6790;49.520;8.504;2023-02-12T15:05:42;10.70;99.90
13436;DHT22;6790;49.520;8.504;2023-02-12T15:14:14;10.50;99.90
13436;DHT22;6790;49.520;8.504;2023-02-12T15:19:38;10.40;99.90
13436;DHT22;6790;49.520;8.504;2023-02-12T15:22:18;10.30;99.90
13436;DHT22;6790;49.520;8.504;2023-02-12T15:24:44;10.10;99.90
13436;DHT22;6790;49.520;8.504;2023-02-12T15:27:12;10.10;99.90
13436;DHT22;6790;49.520;8.504;2023-02-12T15:29:48;10.10;99.90
13436;DHT22;6790;49.520;8.504;2023-02-12T15:32:27;10.10;99.90
13436;DHT22;6790;49.520;8.504;2023-02-12T15:34:54;10.10;99.90
13436;DHT22;6790;49.520;8.504;2023-02-12T15:37:38;10.10;99.90
13436;DHT22;6790;49.520;8.504;2023-02-12T15:40:05;10.00;99.90
13436;DHT22;6790;49.520;8.504;2023-02-12T15:42:36;10.00;99.90
13436;DHT22;6790;49.520;8.504;2023-02-12T15:45:17;9.90;99.90
13436;DHT22;6790;49.520;8.504;2023-02-12T15:47:46;9.90;99.90
13436;DHT22;6790;49.520;8.504;2023-02-12T15:50:24;9.80;99.90
13436;DHT22;6790;49.520;8.504;2023-02-12T15:52:51;9.60;99.90
13436;DHT22;6790;49.520;8.504;2023-02-12T15:55:22;9.50;99.90
13436;DHT22;6790;49.520;8.504;2023-02-12T15:57:51;9.30;99.90
13436;DHT22;6790;49.520;8.504;2023-02-12T16:00:39;9.30;99.90
13436;DHT22;6790;49.520;8.504;2023-02-12T16:03:22;9.10;99.90
13436;DHT22;6790;49.520;8.504;2023-02-12T16:05:55;9.20;99.90
13436;DHT22;6790;49.520;8.504;2023-02-12T16:08:22;9.00;99.90
13436;DHT22;6790;49.520;8.504;2023-02-12T16:10:51;9.10;99.90
13436;DHT22;6790;49.520;8.504;2023-02-12T16:13:23;9.00;99.90
13436;DHT22;6790;49.520;8.504;2023-02-12T16:18:30;8.80;99.90
13436;DHT22;6790;49.520;8.504;2023-02-12T16:21:10;8.60;99.90
13436;DHT22;6790;49.520;8.504;2023-02-12T16:23:41;8.60;99.90
13436;DHT22;6790;49.520;8.504;2023-02-12T16:26:08;8.50;99.90
13436;DHT22;6790;49.520;8.504;2023-02-12T16:28:38;8.50;99.90
13436;DHT22;6790;49.520;8.504;2023-02-12T16:31:12;8.40;99.90
13436;DHT22;6790;49.520;8.504;2023-02-12T16:36:13;8.10;99.90
13436;DHT22;6790;49.520;8.504;2023-02-12T16:39:10;8.00;99.90
13436;DHT22;6790;49.520;8.504;2023-02-12T16:42:17;7.80;99.90
13436;DHT22;6790;49.520;8.504;2023-02-12T16:44:44;7.60;99.90
13436;DHT22;6790;49.520;8.504;2023-02-12T16:47:20;7.50;99.90
13436;DHT22;6790;49.520;8.504;2023-02-12T16:50:13;7.40;99.90
13436;DHT22;6790;49.520;8.504;2023-02-12T16:52:40;7.30;99.90
13436;DHT22;6790;49.520;8.504;2023-02-12T16:55:17;7.40;99.90
13436;DHT22;6790;49.520;8.504;2023-02-12T16:57:43;7.20;99.90
13436;DHT22;6790;49.520;8.504;2023-02-12T17:00:15;7.20;99.90
13436;DHT22;6790;49.520;8.504;2023-02-12T17:02:41;7.10;99.90
13436;DHT22;6790;49.520;8.504;2023-02-12T17:05:14;7.20;99.90
13436;DHT22;6790;49.520;8.504;2023-02-12T17:07:43;7.10;99.90
13436;DHT22;6790;49.520;8.504;2023-02-12T17:10:15;7.00;99.90
13436;DHT22;6790;49.520;8.504;2023-02-12T17:13:05;6.90;99.90
13436;DHT22;6790;49.520;8.504;2023-02-12T17:18:46;6.80;99.90
13436;DHT22;6790;49.520;8.504;2023-02-12T17:21:34;6.70;99.90
13436;DHT22;6790;49.520;8.504;2023-02-12T17:24:26;6.60;99.90
13436;DHT22;6790;49.520;8.504;2023-02-12T17:26:53;6.50;99.90
13436;DHT22;6790;49.520;8.504;2023-02-12T17:29:23;6.50;99.90
13436;DHT22;6790;49.520;8.504;2023-02-12T17:31:50;6.40;99.90
13436;DHT22;6790;49.520;8.504;2023-02-12T17:34:20;6.40;99.90
13436;DHT22;6790;49.520;8.504;2023-02-12T17:36:47;6.30;99.90
13436;DHT22;6790;49.520;8.504;2023-02-12T17:39:14;6.20;99.90
13436;DHT22;6790;49.520;8.504;2023-02-12T17:41:41;6.20;99.90
13436;DHT22;6790;49.520;8.504;2023-02-12T17:44:08;6.30;99.90
13436;DHT22;6790;49.520;8.504;2023-02-12T17:46:34;6.30;99.90
13436;DHT22;6790;49.520;8.504;2023-02-12T17:49:00;6.30;99.90
13436;DHT22;6790;49.520;8.504;2023-02-12T17:51:26;6.20;99.90
13436;DHT22;6790;49.520;8.504;2023-02-12T17:53:55;6.20;99.90
13436;DHT22;6790;49.520;8.504;2023-02-12T17:56:22;6.00;99.90
13436;DHT22;6790;49.520;8.504;2023-02-12T17:58:49;6.00;99.90
13436;DHT22;6790;49.520;8.504;2023-02-12T18:01:18;6.00;99.90
13436;DHT22;6790;49.520;8.504;2023-02-12T18:03:44;5.90;99.90
13436;DHT22;6790;49.520;8.504;2023-02-12T18:06:10;5.80;99.90
13436;DHT22;6790;49.520;8.504;2023-02-12T18:08:39;5.80;99.90
13436;DHT22;6790;49.520;8.504;2023-02-12T18:11:06;5.70;99.90
13436;DHT22;6790;49.520;8.504;2023-02-12T18:13:36;5.70;99.90
13436;DHT22;6790;49.520;8.504;2023-02-12T18:16:09;5.50;99.90
13436;DHT22;6790;49.520;8.504;2023-02-12T18:18:36;5.40;99.90
13436;DHT22;6790;49.520;8.504;2023-02-12T18:21:10;5.30;99.90
13436;DHT22;6790;49.520;8.504;2023-02-12T18:23:37;5.30;99.90
13436;DHT22;6790;49.520;8.504;2023-02-12T18:26:08;5.20;99.90
13436;DHT22;6790;49.520;8.504;2023-02-12T18:28:36;5.10;99.90
13436;DHT22;6790;49.520;8.504;2023-02-12T18:31:02;5.10;99.90
13436;DHT22;6790;49.520;8.504;2023-02-12T18:33:28;4.90;99.90
13436;DHT22;6790;49.520;8.504;2023-02-12T18:36:12;4.80;99.90
13436;DHT22;6790;49.520;8.504;2023-02-12T18:38:40;4.70;99.90
13436;DHT22;6790;49.520;8.504;2023-02-12T18:41:15;4.60;99.90
13436;DHT22;6790;49.520;8.504;2023-02-12T18:43:48;4.60;99.90
13436;DHT22;6790;49.520;8.504;2023-02-12T18:46:17;4.50;99.90
13436;DHT22;6790;49.520;8.504;2023-02-12T18:48:44;4.50;99.90
13436;DHT22;6790;49.520;8.504;2023-02-12T18:51:14;4.40;99.90
13436;DHT22;6790;49.520;8.504;2023-02-12T18:53:41;4.30;99.90
13436;DHT22;6790;49.520;8.504;2023-02-12T18:56:09;4.30;99.90
13436;DHT22;6790;49.520;8.504;2023-02-12T18:58:35;4.20;99.90
13436;DHT22;6790;49.520;8.504;2023-02-12T19:01:14;4.10;99.90
13436;DHT22;6790;49.520;8.504;2023-02-12T19:03:42;4.00;99.90
13436;DHT22;6790;49.520;8.504;2023-02-12T19:06:08;4.00;99.90